Arnesen, Minnesota
Current Conditions -  °F | °C
As of 5:54 PM on Wednesday 22 Oct 2014 (Local Time) from KRRT Reporting Station
Overcast Overcast  
Wind Chill: 61°   Ceiling: 4100
Heat Index: 61°   Visibility: 10mi
Dew Point: 48°   Wind: 10mph
Humidity: 63%   Direction: 170°S
Pressure: 29.84"   Gusts: NA
Location:  48.6345°N, 95.1786°W
Report Text: KRRT 222254Z AUTO 17009KT 10SM OVC041 16/09 A2984 RMK AO2
Loading
Personal Weather Stations






























Interactive Weather Map New forecast layout! Learn more

10-Day Weather Forecast

Advertisements
Track Severe Weather on mobile